This is the latest recevied weather packets stored in our database for station/object RW6A-13. If no packets are shown the sender has not sent any weather packets the latest 1 day(s).
| Time | Temp. | Humidity | Pressure | Rain* | Wind** | Luminosity | Snow |
|---|---|---|---|---|---|---|---|
| 1778047244 | 18.89° C | 58% | 1010.6 hPa | 0 mm | - | - | - |
| 1778046345 | 17.22° C | 66% | 1010.6 hPa | 0 mm | - | - | - |
| 1778046044 | 16.67° C | 68% | 1010.7 hPa | 0 mm | - | - | - |
| 1778045444 | 16.67° C | 69% | 1010.7 hPa | 0 mm | - | - | - |
| 1778045144 | 16.67° C | 67% | 1010.7 hPa | 0 mm | - | - | - |
| 1778044244 | 16.11° C | 68% | 1010.6 hPa | 0 mm | - | - | - |
| 1778043344 | 15° C | 70% | 1010.6 hPa | 0 mm | - | - | - |
| 1778043044 | 15° C | 72% | 1010.6 hPa | 0 mm | - | - | - |
| 1778042744 | 14.44° C | 71% | 1010.6 hPa | 0 mm | - | - | - |
| 1778042444 | 13.89° C | 73% | 1010.6 hPa | 0 mm | - | - | - |
| 1778042144 | 13.89° C | 77% | 1010.5 hPa | 0 mm | - | - | - |
| 1778041243 | 12.78° C | 81% | 1010.5 hPa | 0 mm | - | - | - |
| 1778040943 | 12.22° C | 85% | 1010.6 hPa | 0 mm | - | - | - |
| 1778040644 | 11.67° C | 85% | 1010.6 hPa | 0 mm | - | - | - |
| 1778040344 | 11.67° C | 87% | 1010.6 hPa | 0 mm | - | - | - |
| 1778039744 | 11.11° C | 90% | 1010.5 hPa | 0 mm | - | - | - |
| 1778039443 | 10.56° C | 91% | 1010.6 hPa | 0 mm | - | - | - |
| 1778038844 | 10° C | 93% | 1010.6 hPa | 0 mm | - | - | - |
| 1778038543 | 10° C | 94% | 1010.5 hPa | 0 mm | - | - | - |
| 1778038243 | 9.44° C | 94% | 1010.4 hPa | 0 mm | - | - | - |
| 1778037943 | 9.44° C | 94% | 1010.4 hPa | 0 mm | - | - | - |
| 1778037643 | 8.89° C | 94% | 1010.3 hPa | 0 mm | - | - | - |
| 1778037043 | 8.89° C | 95% | 1010.1 hPa | 0 mm | - | - | - |
| 1778036743 | 8.89° C | 96% | 1010.1 hPa | 0 mm | - | - | - |
| 1778036143 | 8.33° C | 96% | 1009.9 hPa | 0 mm | - | - | - |
* Rain latest hour (hover to see other rain measurements)
** Current wind speed in m/s (hover to see current wind gust speed)